Terminal Aerodrome Forecast
Issued by NWS

Current Version | Previous Version | Graphics & Text | Print | Product List | Glossary Off
Versions: 1 2 3 4 5 6 7 8 9 10 11 12 13 14 15 16 17 18 19 20 21 22 23 24

291
FTUS41 KILN 221734
TAFLUK
TAF
KLUK 221734Z 2218/2318 17008KT P6SM BKN012 OVC019
     FM222100 19005KT P6SM BKN035
     FM230100 19004KT P6SM BKN025
     FM230400 20004KT 4SM BR OVC015
     FM231000 VRB03KT 4SM BR VCSH OVC015
     FM231500 21004KT P6SM OVC016
     FM231700 21004KT P6SM BKN020=

USA.gov is the U.S. government's official web portal to all federal, state and local government web resources and services.